New Bern, NC

2:55 PM EST on December 03, 2016 (GMT -0500)
Bridgeton | | Change Station

Elev -7 ft 35.13 °N, 77.03 °W | Updated 1 second ago

Clear
Clear
52.5 °F
Feels Like 52.5 °F
N
5.1
Wind Variable Wind from NW
Gusts 7.4 mph

Today
High -- | Low -- °F
--% Chance of Precip.
Yesterday
High -- | Low -- °F
Precip. -- in
Pressure 30.20 in
Visibility 10.0 miles
Clouds Clear
Dew Point 29 °F
Humidity 40%
Rainfall 0.00 in
Snow Depth Not available.
7:00 AM 4:55 PM
Waxing Crescent, 17% visible
METAR KEWN 031854Z 35008KT 10SM CLR 12/M01 A3020 RMK AO2 SLP227 T01221011
Pressure 30.20 in
Visibility 10.0 miles
Clouds Clear
Dew Point 29 °F
Humidity 40%
Rainfall 0.00 in
Snow Depth Not available.
7:00 AM 4:55 PM
Waxing Crescent, 17% visible
METAR KEWN 031854Z 35008KT 10SM CLR 12/M01 A3020 RMK AO2 SLP227 T01221011

10-Day Weather Forecast

Almanac

Astronomy

Dec. 03, 2016 Rise Set
Actual Time
Civil Twilight
Nautical Twilight
Astronomical Twilight
Moon
Length of Visible Light
Length of Day
Tomorrow will be .
, % of the Moon is Illuminated

Today's Extremes

State Highs State Lows

Community

WunderPhotos

Upload Photos

1,955,481 photos uploaded!

WunderBlog® & News

Nearby

Air Quality

  Air Quality AQ Index Pollutant
Not available.

Snow Depth

Station Depth Elevation

Earthquake Activity

City Distance Mag. Time & Date
Minimum magnitude displayed is 2.5.

Coastal Water Temperatures

Place Temperature

Stations

Nearby Weather Stations

Station Location Temp. Windchill Dew Point Humidity Wind Precip. Elev Updated Type
                   

Watches & Warnings

There are currently no watches in effect.